Ofeherto, Hungary
Current Conditions -  °F | °C
As of 5:45 PM on Sunday 21 Dec 2014 (Local Time) from LHDC Reporting Station
Few Clouds Few Clouds  
Wind Chill: 36°   Ceiling: Unl
Heat Index: 41°   Visibility: 6mi
Dew Point: 30°   Wind: 8mph
Humidity: 65%   Direction: 260°W
Pressure: 30.24"   Gusts: NA
Location:  47.93°N, 22.05°E
Report Text: LHDC 211545Z 26007KT 9999 FEW043 05/M01 Q1024
Loading
Personal Weather Stations






























Interactive Weather Map New forecast layout! Learn more

10-Day Weather Forecast

Advertisements
Track Severe Weather on mobile